Time;durP1;ratioP1;P1;durP2;ratioP2;P2;SDS_P1;SDS_P2;PMS_P1;PMS_P2;Temp;Humidity;BMP_temperature;BMP_pressure;BME280_temperature;BME280_humidity;BME280_pressure;Samples;Min_cycle;Max_cycle;Signal;HPM_P1;HPM_P2
2021/08/15 00:02:15;;;;;;;;;;;18.60;99.90;;;;;;5073552;28;19931;-56
2021/08/15 00:05:05;;;;;;;;;;;18.50;99.90;;;;;;5076219;28;19931;-57
2021/08/15 00:07:55;;;;;;;;;;;18.50;99.90;;;;;;5073815;28;19978;-57
2021/08/15 00:10:46;;;;;;;;;;;18.40;99.90;;;;;;5077629;28;19931;-58
2021/08/15 00:13:35;;;;;;;;;;;18.40;99.90;;;;;;5072868;28;20399;-56
2021/08/15 00:16:23;;;;;;;;;;;18.40;99.90;;;;;;5098521;27;20006;-57
2021/08/15 00:19:12;;;;;;;;;;;18.30;99.90;;;;;;5077140;28;19925;-57
2021/08/15 00:22:00;;;;;;;;;;;18.20;99.90;;;;;;5076156;28;19939;-56
2021/08/15 00:24:50;;;;;;;;;;;18.10;99.90;;;;;;5074817;28;19928;-57
2021/08/15 00:27:40;;;;;;;;;;;18.10;99.90;;;;;;5072937;28;19925;-57
2021/08/15 00:30:30;;;;;;;;;;;18.10;99.90;;;;;;5071238;28;20288;-57
2021/08/15 00:33:18;;;;;;;;;;;18.10;99.90;;;;;;5077580;28;19924;-57
2021/08/15 00:36:07;;;;;;;;;;;18.00;99.90;;;;;;5072922;28;19932;-57
2021/08/15 00:38:55;;;;;;;;;;;18.00;99.90;;;;;;5074367;28;20034;-57
2021/08/15 00:41:47;;;;;;;;;;;17.90;99.90;;;;;;5086702;28;19931;-57
2021/08/15 00:44:36;;;;;;;;;;;17.90;99.90;;;;;;5082218;28;19931;-57
2021/08/15 00:47:25;;;;;;;;;;;17.80;99.90;;;;;;5068276;28;19936;-57
2021/08/15 00:50:14;;;;;;;;;;;17.90;99.90;;;;;;5073392;28;20066;-57
2021/08/15 00:53:03;;;;;;;;;;;17.80;99.90;;;;;;5075238;28;19924;-56
2021/08/15 00:55:51;;;;;;;;;;;17.80;99.90;;;;;;5074388;28;19924;-56
2021/08/15 00:58:42;;;;;;;;;;;17.80;99.90;;;;;;5073867;28;19924;-56
2021/08/15 01:01:30;;;;;;;;;;;17.80;99.90;;;;;;5071151;28;19924;-56
2021/08/15 01:04:19;;;;;;;;;;;17.70;99.90;;;;;;5076101;28;20407;-57
2021/08/15 01:07:33;;;;;;;;;;;17.70;99.90;;;;;;5074317;28;19931;-56
2021/08/15 01:10:22;;;;;;;;;;;17.60;99.90;;;;;;5071414;28;19924;-56
2021/08/15 01:13:10;;;;;;;;;;;17.60;99.90;;;;;;5076717;28;19923;-57
2021/08/15 01:16:01;;;;;;;;;;;17.60;99.90;;;;;;5062559;28;20014;-59
2021/08/15 01:18:49;;;;;;;;;;;17.50;99.90;;;;;;5075489;28;19924;-57
2021/08/15 01:21:38;;;;;;;;;;;17.50;99.90;;;;;;5073928;28;19929;-57
2021/08/15 01:24:27;;;;;;;;;;;17.40;99.90;;;;;;5073466;28;19928;-57
2021/08/15 01:27:17;;;;;;;;;;;17.40;99.90;;;;;;5072038;28;19928;-57
2021/08/15 01:30:12;;;;;;;;;;;17.40;99.90;;;;;;5053538;28;19941;-57
2021/08/15 01:33:05;;;;;;;;;;;17.40;99.90;;;;;;5071175;28;20065;-58
2021/08/15 01:35:54;;;;;;;;;;;17.30;99.90;;;;;;5074248;28;20040;-58
2021/08/15 01:38:43;;;;;;;;;;;17.30;99.90;;;;;;5072452;28;19947;-57
2021/08/15 01:41:32;;;;;;;;;;;17.30;99.90;;;;;;5068669;28;19932;-57
2021/08/15 01:44:21;;;;;;;;;;;17.20;99.90;;;;;;5070564;28;19931;-57
2021/08/15 01:47:12;;;;;;;;;;;17.20;99.90;;;;;;5062403;28;20374;-57
2021/08/15 01:50:00;;;;;;;;;;;17.10;99.90;;;;;;5069922;28;19924;-60
2021/08/15 01:52:49;;;;;;;;;;;17.10;99.90;;;;;;5072454;28;20360;-57
2021/08/15 01:55:39;;;;;;;;;;;17.10;99.90;;;;;;5071430;28;20538;-57
2021/08/15 01:58:27;;;;;;;;;;;17.00;99.90;;;;;;5072389;28;19924;-57
2021/08/15 02:01:16;;;;;;;;;;;17.00;99.90;;;;;;5066557;28;19925;-57
2021/08/15 02:04:07;;;;;;;;;;;17.00;99.90;;;;;;5071273;28;20391;-57
2021/08/15 02:07:00;;;;;;;;;;;17.00;99.90;;;;;;5072823;28;19928;-57
2021/08/15 02:09:50;;;;;;;;;;;16.90;99.90;;;;;;5070576;28;19924;-57
2021/08/15 02:12:39;;;;;;;;;;;16.90;99.90;;;;;;5074336;28;20008;-57
2021/08/15 02:15:27;;;;;;;;;;;16.80;99.90;;;;;;5068568;28;19928;-57
2021/08/15 02:18:15;;;;;;;;;;;16.80;99.90;;;;;;5072204;28;19967;-59
2021/08/15 02:21:05;;;;;;;;;;;16.80;99.90;;;;;;5069739;28;20713;-57
2021/08/15 02:23:55;;;;;;;;;;;16.80;99.90;;;;;;5070151;28;19972;-60
2021/08/15 02:29:56;;;;;;;;;;;16.80;99.90;;;;;;5071692;28;20409;-59
2021/08/15 02:32:47;;;;;;;;;;;16.70;99.90;;;;;;5069663;28;19924;-57
2021/08/15 02:35:35;;;;;;;;;;;16.70;99.90;;;;;;5072283;28;19929;-57
2021/08/15 02:38:26;;;;;;;;;;;16.60;99.90;;;;;;5074511;28;19932;-56
2021/08/15 02:41:15;;;;;;;;;;;16.50;99.90;;;;;;5088020;28;19951;-56
2021/08/15 02:44:05;;;;;;;;;;;16.50;99.90;;;;;;5075977;28;20055;-56
2021/08/15 02:46:54;;;;;;;;;;;16.40;99.90;;;;;;5069220;28;19925;-57
2021/08/15 02:49:42;;;;;;;;;;;16.40;99.90;;;;;;5072483;28;19947;-56
2021/08/15 02:52:31;;;;;;;;;;;16.40;99.90;;;;;;5071805;28;19943;-57
2021/08/15 02:55:21;;;;;;;;;;;16.40;99.90;;;;;;5073894;28;19924;-57
2021/08/15 02:58:09;;;;;;;;;;;16.40;99.90;;;;;;5079044;28;19924;-57
2021/08/15 03:00:57;;;;;;;;;;;16.50;99.90;;;;;;5071971;28;20006;-57
2021/08/15 03:03:46;;;;;;;;;;;16.40;99.90;;;;;;5073982;28;19924;-57
2021/08/15 03:06:35;;;;;;;;;;;16.40;99.90;;;;;;5083692;28;20445;-58
2021/08/15 03:09:24;;;;;;;;;;;16.30;99.90;;;;;;5081023;28;19928;-58
2021/08/15 03:12:38;;;;;;;;;;;16.40;99.90;;;;;;5082351;28;19928;-58
2021/08/15 03:15:28;;;;;;;;;;;16.40;99.90;;;;;;5082762;28;19996;-56
2021/08/15 03:18:18;;;;;;;;;;;16.40;99.90;;;;;;5080233;28;19935;-58
2021/08/15 03:21:07;;;;;;;;;;;16.30;99.90;;;;;;5078728;28;19924;-58
2021/08/15 03:23:55;;;;;;;;;;;16.20;99.90;;;;;;5079411;28;19978;-57
2021/08/15 03:27:09;;;;;;;;;;;16.10;99.90;;;;;;5080485;28;20342;-58
2021/08/15 03:29:58;;;;;;;;;;;16.10;99.90;;;;;;5077671;28;20054;-58
2021/08/15 03:32:48;;;;;;;;;;;16.00;99.90;;;;;;5074299;28;19935;-58
2021/08/15 03:35:37;;;;;;;;;;;16.00;99.90;;;;;;5075016;28;19924;-57
2021/08/15 03:38:25;;;;;;;;;;;16.00;99.90;;;;;;5078679;28;20299;-58
2021/08/15 03:41:14;;;;;;;;;;;16.00;99.90;;;;;;5072224;28;20454;-58
2021/08/15 03:44:03;;;;;;;;;;;16.00;99.90;;;;;;5073779;28;19928;-57
2021/08/15 03:46:52;;;;;;;;;;;15.90;99.90;;;;;;5073096;28;19980;-58
2021/08/15 03:49:43;;;;;;;;;;;15.90;99.90;;;;;;5075780;28;20399;-60
2021/08/15 03:52:31;;;;;;;;;;;15.90;99.90;;;;;;5075945;28;19928;-58
2021/08/15 03:55:20;;;;;;;;;;;15.80;99.90;;;;;;5076735;28;19931;-58
2021/08/15 03:58:08;;;;;;;;;;;15.80;99.90;;;;;;5074770;28;19932;-58
2021/08/15 04:00:58;;;;;;;;;;;15.90;99.90;;;;;;5066557;28;20384;-57
2021/08/15 04:03:46;;;;;;;;;;;15.80;99.90;;;;;;5068246;28;19932;-57
2021/08/15 04:06:37;;;;;;;;;;;15.80;99.90;;;;;;5071462;28;19966;-61
2021/08/15 04:09:26;;;;;;;;;;;15.80;99.90;;;;;;5065921;28;19932;-60
2021/08/15 04:12:14;;;;;;;;;;;15.80;99.90;;;;;;5069754;28;19924;-58
2021/08/15 04:15:02;;;;;;;;;;;15.70;99.90;;;;;;5066820;28;19924;-57
2021/08/15 04:17:51;;;;;;;;;;;15.70;99.90;;;;;;5071480;28;19932;-57
2021/08/15 04:20:40;;;;;;;;;;;15.70;99.90;;;;;;5075132;28;20015;-57
2021/08/15 04:23:32;;;;;;;;;;;15.70;99.90;;;;;;5073199;28;19924;-57
2021/08/15 04:27:10;;;;;;;;;;;15.70;99.90;;;;;;5071947;28;20018;-58
2021/08/15 04:29:59;;;;;;;;;;;15.70;99.90;;;;;;5067089;28;20341;-57
2021/08/15 04:32:53;;;;;;;;;;;15.70;99.90;;;;;;5068506;28;20356;-59
2021/08/15 04:35:43;;;;;;;;;;;15.70;99.90;;;;;;5071429;28;19924;-58
2021/08/15 04:38:32;;;;;;;;;;;15.70;99.90;;;;;;5074385;28;20253;-57
2021/08/15 04:41:21;;;;;;;;;;;15.80;99.90;;;;;;5067948;28;20339;-57
2021/08/15 04:44:10;;;;;;;;;;;15.80;99.90;;;;;;5068342;28;19924;-58
2021/08/15 04:46:58;;;;;;;;;;;15.90;99.90;;;;;;5066049;28;19966;-58
2021/08/15 04:49:47;;;;;;;;;;;15.90;99.90;;;;;;5067778;28;19934;-57
2021/08/15 04:52:36;;;;;;;;;;;16.00;99.90;;;;;;5075849;28;19924;-57
2021/08/15 04:55:27;;;;;;;;;;;16.10;99.90;;;;;;5068738;28;20288;-58
2021/08/15 04:58:22;;;;;;;;;;;16.20;99.90;;;;;;5080084;28;19925;-58
2021/08/15 05:01:19;;;;;;;;;;;16.30;99.90;;;;;;5081065;28;20030;-58
2021/08/15 05:04:11;;;;;;;;;;;16.40;99.90;;;;;;5105136;28;19935;-58
2021/08/15 05:07:00;;;;;;;;;;;16.50;99.90;;;;;;5081660;28;20021;-58
2021/08/15 05:09:49;;;;;;;;;;;16.70;99.90;;;;;;5067384;28;19939;-60
2021/08/15 05:12:43;;;;;;;;;;;16.80;99.90;;;;;;5072261;28;19933;-57
2021/08/15 05:15:31;;;;;;;;;;;17.00;99.90;;;;;;5067699;28;19925;-57
2021/08/15 05:18:20;;;;;;;;;;;17.20;99.90;;;;;;5067408;28;19932;-58
2021/08/15 05:21:08;;;;;;;;;;;17.30;99.90;;;;;;5096557;28;19925;-58
2021/08/15 05:23:58;;;;;;;;;;;17.30;99.90;;;;;;5068684;28;19940;-58
2021/08/15 05:30:04;;;;;;;;;;;17.60;99.90;;;;;;5072237;28;19933;-58
2021/08/15 05:32:56;;;;;;;;;;;17.70;99.90;;;;;;5076417;28;19924;-58
2021/08/15 05:38:59;;;;;;;;;;;18.00;99.90;;;;;;5080252;28;19942;-57
2021/08/15 05:41:50;;;;;;;;;;;18.20;99.90;;;;;;5096620;28;19951;-58
2021/08/15 05:44:39;;;;;;;;;;;18.30;99.90;;;;;;5085418;28;19912;-56
2021/08/15 05:47:30;;;;;;;;;;;18.40;99.90;;;;;;5086885;28;19908;-56
2021/08/15 05:50:18;;;;;;;;;;;18.50;99.90;;;;;;5088512;28;19925;-56
2021/08/15 05:53:07;;;;;;;;;;;18.60;99.90;;;;;;5083442;28;19932;-57
2021/08/15 05:55:55;;;;;;;;;;;18.70;99.90;;;;;;5082204;28;19947;-56
2021/08/15 05:58:44;;;;;;;;;;;18.80;99.90;;;;;;5081220;28;19928;-57
2021/08/15 06:01:33;;;;;;;;;;;19.00;99.90;;;;;;5079889;28;19932;-57
2021/08/15 06:04:25;;;;;;;;;;;19.30;99.90;;;;;;5092762;28;19950;-57
2021/08/15 06:07:14;;;;;;;;;;;19.40;99.90;;;;;;5093168;28;19924;-57
2021/08/15 06:10:04;;;;;;;;;;;19.70;99.90;;;;;;5090796;28;19908;-57
2021/08/15 06:12:53;;;;;;;;;;;20.20;99.90;;;;;;5094750;28;19925;-56
2021/08/15 06:15:46;;;;;;;;;;;20.60;99.90;;;;;;5089280;28;19979;-58
2021/08/15 06:18:36;;;;;;;;;;;21.10;99.90;;;;;;5096101;28;19925;-57
2021/08/15 06:21:26;;;;;;;;;;;21.20;99.90;;;;;;5094343;28;19983;-57
2021/08/15 06:24:14;;;;;;;;;;;22.00;99.90;;;;;;5097682;28;19925;-59
2021/08/15 06:27:04;;;;;;;;;;;23.00;99.90;;;;;;5093446;28;19957;-57
2021/08/15 06:29:52;;;;;;;;;;;23.90;99.90;;;;;;5096859;28;19951;-57
2021/08/15 06:32:44;;;;;;;;;;;24.50;99.90;;;;;;5098495;28;19952;-58
2021/08/15 06:35:32;;;;;;;;;;;25.00;99.90;;;;;;5093693;28;19925;-57
2021/08/15 06:38:25;;;;;;;;;;;25.80;99.90;;;;;;5097234;28;19931;-56
2021/08/15 06:41:13;;;;;;;;;;;25.80;99.90;;;;;;5085098;28;19920;-57
2021/08/15 06:44:02;;;;;;;;;;;26.00;99.90;;;;;;5100491;28;19931;-57
2021/08/15 06:46:54;;;;;;;;;;;26.80;99.90;;;;;;5096327;28;19925;-57
2021/08/15 06:49:43;;;;;;;;;;;27.20;99.00;;;;;;5097637;28;19924;-57
2021/08/15 06:52:31;;;;;;;;;;;27.80;98.20;;;;;;5101695;28;19924;-56
2021/08/15 06:55:21;;;;;;;;;;;28.80;96.80;;;;;;5081339;28;20444;-56
2021/08/15 06:58:09;;;;;;;;;;;28.80;95.80;;;;;;5078190;28;21615;-57
2021/08/15 07:00:58;;;;;;;;;;;29.20;95.30;;;;;;5077642;28;19928;-57
2021/08/15 07:03:47;;;;;;;;;;;28.80;95.40;;;;;;5075561;28;19924;-58
2021/08/15 07:06:36;;;;;;;;;;;28.60;94.70;;;;;;5079539;28;20303;-58
2021/08/15 07:09:25;;;;;;;;;;;28.70;94.40;;;;;;5077299;28;19950;-58
2021/08/15 07:12:18;;;;;;;;;;;28.50;94.60;;;;;;5073492;28;20315;-58
2021/08/15 07:15:08;;;;;;;;;;;28.80;94.10;;;;;;5070528;28;19974;-58
2021/08/15 07:17:57;;;;;;;;;;;29.70;92.80;;;;;;5077180;28;20272;-57
2021/08/15 07:20:46;;;;;;;;;;;29.50;92.60;;;;;;5076888;28;19932;-58
2021/08/15 07:23:34;;;;;;;;;;;30.30;91.50;;;;;;5074629;28;19977;-60
2021/08/15 07:26:47;;;;;;;;;;;30.50;90.70;;;;;;5077789;28;19924;-58
2021/08/15 07:29:47;;;;;;;;;;;31.10;88.70;;;;;;5076756;28;19970;-58
2021/08/15 07:32:35;;;;;;;;;;;31.30;88.00;;;;;;5080772;28;19925;-58
2021/08/15 07:35:24;;;;;;;;;;;31.70;83.80;;;;;;5074958;28;19948;-58
2021/08/15 07:38:12;;;;;;;;;;;31.30;85.70;;;;;;5078160;28;19924;-58
2021/08/15 07:41:01;;;;;;;;;;;31.20;84.90;;;;;;5082048;28;19925;-58
2021/08/15 07:43:50;;;;;;;;;;;31.10;85.60;;;;;;5075797;28;19924;-57
2021/08/15 07:46:40;;;;;;;;;;;32.70;81.10;;;;;;5073299;28;19924;-57
2021/08/15 07:49:29;;;;;;;;;;;31.90;79.60;;;;;;5072486;28;19939;-61
2021/08/15 07:52:17;;;;;;;;;;;32.10;76.80;;;;;;5077143;28;19970;-59
2021/08/15 07:55:06;;;;;;;;;;;32.40;76.30;;;;;;5081484;28;19924;-60
2021/08/15 07:57:55;;;;;;;;;;;32.20;71.80;;;;;;5074034;28;19931;-58
2021/08/15 08:00:44;;;;;;;;;;;32.40;71.50;;;;;;5071531;28;19924;-57
2021/08/15 08:03:34;;;;;;;;;;;33.00;71.90;;;;;;5074665;28;19929;-57
2021/08/15 08:06:23;;;;;;;;;;;32.00;73.20;;;;;;5071826;28;19932;-57
2021/08/15 08:09:11;;;;;;;;;;;33.20;73.70;;;;;;5083683;28;19936;-57
2021/08/15 08:12:00;;;;;;;;;;;33.30;71.60;;;;;;5080718;28;19925;-57
2021/08/15 08:14:49;;;;;;;;;;;33.90;71.50;;;;;;5077357;28;19936;-57
2021/08/15 08:17:38;;;;;;;;;;;36.40;59.60;;;;;;5076051;28;19933;-57
2021/08/15 08:20:32;;;;;;;;;;;37.20;54.60;;;;;;5076996;28;19924;-58
2021/08/15 08:23:21;;;;;;;;;;;37.20;52.50;;;;;;5071325;28;19924;-58
2021/08/15 08:26:10;;;;;;;;;;;36.90;50.20;;;;;;5069625;28;19936;-58
2021/08/15 08:28:58;;;;;;;;;;;37.30;51.90;;;;;;5075444;28;19930;-58
2021/08/15 08:31:47;;;;;;;;;;;37.80;49.70;;;;;;5068600;28;20268;-59
2021/08/15 08:34:35;;;;;;;;;;;35.60;54.20;;;;;;5076058;28;19932;-59
2021/08/15 08:37:25;;;;;;;;;;;34.80;55.60;;;;;;5083723;28;19931;-58
2021/08/15 08:40:14;;;;;;;;;;;34.20;55.90;;;;;;5079739;28;20678;-58
2021/08/15 08:43:04;;;;;;;;;;;33.20;57.20;;;;;;5080966;28;20402;-59
2021/08/15 08:45:54;;;;;;;;;;;33.50;59.80;;;;;;5065675;28;20445;-58
2021/08/15 08:48:43;;;;;;;;;;;34.50;58.70;;;;;;5076410;28;19934;-59
2021/08/15 08:51:32;;;;;;;;;;;36.50;53.20;;;;;;5076431;28;20007;-59
2021/08/15 08:54:42;;;;;;;;;;;36.60;53.90;;;;;;5074471;28;20049;-58
2021/08/15 08:57:31;;;;;;;;;;;35.10;53.90;;;;;;5076455;28;19974;-58
2021/08/15 09:00:19;;;;;;;;;;;33.80;54.80;;;;;;5069666;28;19933;-59
2021/08/15 09:03:08;;;;;;;;;;;34.00;55.80;;;;;;5072970;28;19970;-58
2021/08/15 09:05:57;;;;;;;;;;;34.90;55.50;;;;;;5075217;28;19934;-57
2021/08/15 09:08:49;;;;;;;;;;;34.70;54.60;;;;;;5064662;28;19982;-58
2021/08/15 09:11:39;;;;;;;;;;;33.70;54.00;;;;;;5089917;28;19987;-58
2021/08/15 09:14:33;;;;;;;;;;;37.00;52.20;;;;;;5078566;28;19925;-58
2021/08/15 09:17:21;;;;;;;;;;;38.90;47.40;;;;;;5066759;28;21069;-58
2021/08/15 09:20:13;;;;;;;;;;;36.80;47.40;;;;;;5068366;28;20057;-57
2021/08/15 09:23:17;;;;;;;;;;;34.30;53.50;;;;;;5075773;28;19942;-57
2021/08/15 09:26:16;;;;;;;;;;;36.60;51.10;;;;;;5069165;28;19924;-58
2021/08/15 09:29:15;;;;;;;;;;;36.70;51.20;;;;;;5074725;28;20356;-60
2021/08/15 09:32:04;;;;;;;;;;;38.30;48.80;;;;;;5066941;28;19927;-58
2021/08/15 09:34:57;;;;;;;;;;;36.50;50.90;;;;;;5076258;28;19932;-58
2021/08/15 09:37:45;;;;;;;;;;;34.80;53.10;;;;;;5071615;28;20409;-60
2021/08/15 09:40:59;;;;;;;;;;;33.60;56.10;;;;;;5077846;28;19924;-57
2021/08/15 09:43:48;;;;;;;;;;;32.80;56.80;;;;;;5071595;28;20010;-58
2021/08/15 09:46:51;;;;;;;;;;;32.30;59.70;;;;;;5065285;28;19931;-57
2021/08/15 09:49:43;;;;;;;;;;;32.10;60.70;;;;;;5073716;28;19929;-57
2021/08/15 09:52:38;;;;;;;;;;;33.80;58.70;;;;;;5074455;28;19924;-57
2021/08/15 09:55:41;;;;;;;;;;;35.30;54.90;;;;;;5076745;28;20394;-58
2021/08/15 09:58:29;;;;;;;;;;;33.90;57.60;;;;;;5074691;28;19931;-57
2021/08/15 10:01:18;;;;;;;;;;;31.50;61.90;;;;;;5066023;28;20307;-57
2021/08/15 10:04:07;;;;;;;;;;;30.30;65.70;;;;;;5066605;28;19963;-57
2021/08/15 10:06:57;;;;;;;;;;;30.50;68.00;;;;;;5073429;28;19928;-57
2021/08/15 10:09:46;;;;;;;;;;;30.70;68.40;;;;;;5067576;28;19928;-58
2021/08/15 10:12:34;;;;;;;;;;;30.70;68.70;;;;;;5080692;28;19932;-57
2021/08/15 10:15:24;;;;;;;;;;;30.90;67.80;;;;;;5069145;28;20016;-58
2021/08/15 10:18:14;;;;;;;;;;;30.70;68.20;;;;;;5078949;28;19931;-58
2021/08/15 10:21:06;;;;;;;;;;;30.30;69.10;;;;;;5071694;28;19924;-57
2021/08/15 10:24:05;;;;;;;;;;;30.40;72.10;;;;;;5077993;28;19925;-58
2021/08/15 10:26:54;;;;;;;;;;;30.60;69.60;;;;;;5075455;28;19928;-58
2021/08/15 10:29:44;;;;;;;;;;;31.70;66.30;;;;;;5073449;28;19932;-57
2021/08/15 10:32:32;;;;;;;;;;;33.60;62.60;;;;;;5076795;28;19924;-58
2021/08/15 10:35:20;;;;;;;;;;;33.20;63.10;;;;;;5085194;28;19924;-58
2021/08/15 10:38:09;;;;;;;;;;;33.10;63.80;;;;;;5082101;28;19924;-57
2021/08/15 10:40:59;;;;;;;;;;;32.30;65.00;;;;;;5079195;28;19986;-58
2021/08/15 10:44:10;;;;;;;;;;;32.00;66.10;;;;;;5073357;28;19966;-65
2021/08/15 10:47:12;;;;;;;;;;;31.60;67.40;;;;;;5073235;28;19924;-56
2021/08/15 10:53:34;;;;;;;;;;;31.30;69.40;;;;;;5081142;28;19924;-60
2021/08/15 10:56:44;;;;;;;;;;;31.40;69.30;;;;;;5069325;28;20271;-57
2021/08/15 10:59:34;;;;;;;;;;;31.60;69.40;;;;;;5071812;28;19928;-57
2021/08/15 11:02:31;;;;;;;;;;;31.50;69.30;;;;;;5079368;28;19924;-58
2021/08/15 11:05:34;;;;;;;;;;;31.90;68.70;;;;;;5078002;28;20451;-60
2021/08/15 11:08:38;;;;;;;;;;;31.90;68.00;;;;;;5079508;28;19931;-58
2021/08/15 11:11:30;;;;;;;;;;;32.20;68.80;;;;;;5076109;28;19955;-58
2021/08/15 11:14:28;;;;;;;;;;;32.10;69.30;;;;;;5065724;28;20401;-57
2021/08/15 11:17:17;;;;;;;;;;;32.20;68.10;;;;;;5069846;28;20073;-57
2021/08/15 11:20:24;;;;;;;;;;;33.30;65.60;;;;;;5073701;28;19931;-57
2021/08/15 11:23:14;;;;;;;;;;;33.20;66.70;;;;;;5073282;28;19932;-57
2021/08/15 11:26:11;;;;;;;;;;;31.90;68.10;;;;;;5069672;28;19925;-57
2021/08/15 11:29:05;;;;;;;;;;;30.80;70.10;;;;;;5078644;28;19936;-57
2021/08/15 11:31:54;;;;;;;;;;;30.10;73.70;;;;;;5068882;28;19989;-57
2021/08/15 11:34:49;;;;;;;;;;;30.50;74.40;;;;;;5070963;28;19928;-57
2021/08/15 11:37:41;;;;;;;;;;;30.90;73.20;;;;;;5073753;28;19935;-57
2021/08/15 11:40:54;;;;;;;;;;;30.90;73.70;;;;;;5075060;28;21115;-57
2021/08/15 11:44:08;;;;;;;;;;;30.90;72.60;;;;;;5065255;28;19925;-57
2021/08/15 11:47:14;;;;;;;;;;;30.80;73.30;;;;;;5070571;28;19924;-56
2021/08/15 11:50:13;;;;;;;;;;;30.30;74.20;;;;;;5069339;28;20021;-55
2021/08/15 11:53:01;;;;;;;;;;;29.90;74.80;;;;;;5072073;28;20056;-56
2021/08/15 11:55:50;;;;;;;;;;;29.80;76.30;;;;;;5077708;28;20429;-57
2021/08/15 11:58:43;;;;;;;;;;;30.00;76.30;;;;;;5073191;28;19977;-57
2021/08/15 12:01:33;;;;;;;;;;;30.20;76.50;;;;;;5054652;28;19925;-56
2021/08/15 12:04:22;;;;;;;;;;;30.20;75.40;;;;;;5070594;28;19933;-56
2021/08/15 12:07:12;;;;;;;;;;;29.90;75.50;;;;;;5076638;28;19951;-57
2021/08/15 12:10:19;;;;;;;;;;;29.90;77.40;;;;;;5077628;28;19932;-56
2021/08/15 12:13:19;;;;;;;;;;;30.40;77.50;;;;;;5075871;28;19924;-57
2021/08/15 12:16:33;;;;;;;;;;;30.60;76.10;;;;;;5068651;28;20028;-57
2021/08/15 12:19:23;;;;;;;;;;;30.30;76.20;;;;;;5077516;28;19986;-57
2021/08/15 12:22:17;;;;;;;;;;;30.00;76.50;;;;;;5070767;28;20452;-59
2021/08/15 12:25:06;;;;;;;;;;;30.40;76.50;;;;;;5073224;28;19924;-57
2021/08/15 12:27:55;;;;;;;;;;;31.20;74.20;;;;;;5077844;28;19927;-57
2021/08/15 12:30:43;;;;;;;;;;;31.40;73.40;;;;;;5071542;28;19931;-56
2021/08/15 12:33:35;;;;;;;;;;;31.30;73.70;;;;;;5073587;28;19925;-56
2021/08/15 12:36:24;;;;;;;;;;;30.80;74.30;;;;;;5070026;28;19929;-58
2021/08/15 12:39:13;;;;;;;;;;;30.60;75.10;;;;;;5077099;28;20027;-59
2021/08/15 12:45:29;;;;;;;;;;;30.50;75.20;;;;;;5085134;28;19946;-57
2021/08/15 12:48:20;;;;;;;;;;;29.70;76.90;;;;;;5076446;28;20430;-57
2021/08/15 12:51:10;;;;;;;;;;;29.80;78.30;;;;;;5083755;28;19967;-57
2021/08/15 12:54:02;;;;;;;;;;;30.00;77.70;;;;;;5078418;28;20383;-57
2021/08/15 12:56:50;;;;;;;;;;;30.60;76.70;;;;;;5074000;28;19925;-57
2021/08/15 12:59:39;;;;;;;;;;;31.10;75.60;;;;;;5074772;28;19924;-58
2021/08/15 13:02:27;;;;;;;;;;;31.20;74.40;;;;;;5071888;28;19924;-57
2021/08/15 13:05:17;;;;;;;;;;;31.20;74.70;;;;;;5068343;28;19948;-57
2021/08/15 13:08:07;;;;;;;;;;;31.10;75.10;;;;;;5074170;28;20045;-58
2021/08/15 13:10:56;;;;;;;;;;;30.80;73.80;;;;;;5073712;28;19928;-57
2021/08/15 13:13:50;;;;;;;;;;;30.00;76.60;;;;;;5082921;28;20374;-56
2021/08/15 13:16:38;;;;;;;;;;;29.90;81.20;;;;;;5063128;28;19924;-57
2021/08/15 13:19:27;;;;;;;;;;;30.10;80.30;;;;;;5073895;28;20833;-57
2021/08/15 13:22:16;;;;;;;;;;;30.70;78.60;;;;;;5070972;28;20035;-57
2021/08/15 13:25:07;;;;;;;;;;;30.90;78.10;;;;;;5070926;28;19925;-57
2021/08/15 13:27:57;;;;;;;;;;;31.30;75.60;;;;;;5076251;28;19928;-60
2021/08/15 13:30:45;;;;;;;;;;;30.50;74.80;;;;;;5066405;28;19968;-57
2021/08/15 13:33:36;;;;;;;;;;;30.80;76.10;;;;;;5074097;28;19930;-58
2021/08/15 13:36:24;;;;;;;;;;;31.00;74.70;;;;;;5068111;28;19959;-58
2021/08/15 13:39:12;;;;;;;;;;;31.00;76.30;;;;;;5072390;28;19924;-57
2021/08/15 13:42:02;;;;;;;;;;;30.80;76.80;;;;;;5068838;28;20353;-59
2021/08/15 13:45:17;;;;;;;;;;;30.20;77.10;;;;;;5064552;28;19931;-57
2021/08/15 13:48:06;;;;;;;;;;;30.20;78.90;;;;;;5069835;28;19924;-57
2021/08/15 13:50:56;;;;;;;8.60;6.60;;;30.50;79.20;;;;;;5076692;28;20423;-56
2021/08/15 13:53:45;;;;;;;7.33;6.20;;;31.50;76.20;;;;;;5073270;28;20443;-56
2021/08/15 13:56:34;;;;;;;9.60;6.37;;;31.80;74.20;;;;;;5076743;28;20534;-56
2021/08/15 13:59:39;;;;;;;6.80;6.20;;;31.80;73.20;;;;;;5071369;28;20452;-57
2021/08/15 14:02:28;;;;;;;6.67;6.03;;;31.60;73.20;;;;;;5068699;28;20472;-57
2021/08/15 14:05:18;;;;;;;7.20;6.50;;;31.50;73.10;;;;;;5068935;28;20440;-56
2021/08/15 14:08:07;;;;;;;11.40;7.17;;;31.10;72.80;;;;;;5070893;28;20432;-56
2021/08/15 14:11:11;;;;;;;6.07;5.47;;;30.60;75.40;;;;;;5067251;28;20464;-56
2021/08/15 14:14:02;;;;;;;6.57;5.87;;;30.60;74.50;;;;;;5073898;28;20448;-57
2021/08/15 14:16:53;;;;;;;8.00;6.10;;;30.70;74.00;;;;;;5070241;28;20471;-57
2021/08/15 14:19:42;;;;;;;8.33;6.80;;;30.50;74.20;;;;;;5069630;28;20808;-57
2021/08/15 14:22:32;;;;;;;6.27;5.70;;;30.80;74.20;;;;;;5069185;28;20935;-57
2021/08/15 14:25:21;;;;;;;6.20;5.60;;;30.90;72.70;;;;;;5088893;28;20448;-57
2021/08/15 14:28:10;;;;;;;7.40;6.00;;;30.80;74.40;;;;;;5063419;28;20526;-56
2021/08/15 14:31:00;;;;;;;6.30;5.70;;;30.80;74.00;;;;;;5066561;28;20486;-56
2021/08/15 14:33:51;;;;;;;6.30;5.70;;;30.80;74.60;;;;;;5068396;28;20463;-57
2021/08/15 14:36:41;;;;;;;10.20;5.87;;;30.40;75.10;;;;;;5071635;28;20794;-56
2021/08/15 14:39:29;;;;;;;7.00;6.20;;;30.50;76.50;;;;;;5064639;28;20840;-57
2021/08/15 14:42:18;;;;;;;6.67;6.07;;;30.30;76.20;;;;;;5063217;28;20452;-57
2021/08/15 14:45:12;;;;;;;8.60;6.53;;;30.40;77.00;;;;;;5064513;28;20928;-57
2021/08/15 14:48:00;;;;;;;7.87;6.70;;;30.60;76.50;;;;;;5072501;28;20487;-56
2021/08/15 14:50:51;;;;;;;9.03;7.20;;;30.80;76.70;;;;;;5076432;28;20439;-56
2021/08/15 14:53:40;;;;;;;7.10;6.40;;;30.90;75.90;;;;;;5068509;28;20437;-56
2021/08/15 14:56:29;;;;;;;7.83;5.80;;;30.80;74.90;;;;;;5073010;28;20452;-57
2021/08/15 14:59:20;;;;;;;8.63;6.20;;;30.50;75.10;;;;;;5068622;28;20441;-57
2021/08/15 15:02:09;;;;;;;6.43;5.83;;;30.60;75.70;;;;;;5077555;28;20479;-57
2021/08/15 15:04:58;;;;;;;5.87;5.27;;;30.60;75.60;;;;;;5080409;28;20911;-57
2021/08/15 15:07:48;;;;;;;7.57;6.83;;;30.60;75.90;;;;;;5085000;28;20460;-57
2021/08/15 15:10:38;;;;;;;7.23;6.53;;;30.80;75.90;;;;;;5102883;27;20908;-56
2021/08/15 15:13:32;;;;;;;7.80;6.03;;;30.60;76.40;;;;;;5071402;28;20447;-56
2021/08/15 15:16:21;;;;;;;6.17;5.57;;;30.60;76.90;;;;;;5083074;28;20807;-57
2021/08/15 15:19:10;;;;;;;6.30;5.67;;;30.20;80.20;;;;;;5082851;28;20429;-57
2021/08/15 15:21:58;;;;;;;7.13;6.43;;;29.90;79.70;;;;;;5085008;28;20779;-57
2021/08/15 15:24:49;;;;;;;6.93;6.20;;;29.70;79.50;;;;;;5085868;28;20428;-58
2021/08/15 15:27:37;;;;;;;6.03;5.40;;;29.70;80.90;;;;;;5089129;28;20443;-57
2021/08/15 15:30:26;;;;;;;8.37;6.20;;;29.70;80.60;;;;;;5083981;28;21096;-58
2021/08/15 15:33:15;;;;;;;7.93;5.90;;;29.80;81.00;;;;;;5086206;28;20436;-58
2021/08/15 15:36:03;;;;;;;7.00;6.30;;;29.80;80.70;;;;;;5081850;28;20475;-57
2021/08/15 15:38:53;;;;;;;5.93;5.40;;;29.70;80.40;;;;;;5080569;28;20431;-59
2021/08/15 15:41:43;;;;;;;6.53;5.90;;;29.60;78.40;;;;;;5089399;28;20443;-57
2021/08/15 15:44:34;;;;;;;6.20;5.63;;;29.50;79.60;;;;;;5082403;28;20432;-57
2021/08/15 15:47:24;;;;;;;6.33;5.73;;;29.40;79.20;;;;;;5085196;28;20463;-56
2021/08/15 15:50:13;;;;;;;6.33;5.60;;;29.30;80.30;;;;;;5091927;28;20455;-57
2021/08/15 15:53:03;;;;;;;7.80;5.40;;;28.90;82.60;;;;;;5092107;28;20417;-60
2021/08/15 15:55:53;;;;;;;7.20;5.83;;;28.80;84.10;;;;;;5074726;28;20469;-57
2021/08/15 15:58:46;;;;;;;6.30;5.70;;;28.90;83.10;;;;;;5078250;28;20444;-56
2021/08/15 16:01:36;;;;;;;6.70;6.07;;;28.80;83.30;;;;;;5073213;28;20947;-57
2021/08/15 16:04:25;;;;;;;8.80;6.87;;;28.70;85.50;;;;;;5072262;28;20424;-57
2021/08/15 16:07:14;;;;;;;21.40;12.43;;;28.40;91.00;;;;;;5076130;28;20447;-57
2021/08/15 16:10:05;;;;;;;765.80;701.53;;;26.20;99.90;;;;;;5073710;28;21037;-57
2021/08/15 16:12:58;;;;;;;1067.22;992.50;;;24.40;99.90;;;;;;5073139;28;20481;-58
2021/08/15 16:15:48;;;;;;;944.33;876.58;;;23.10;99.90;;;;;;5072054;28;20427;-57
2021/08/15 16:18:38;;;;;;;1091.10;999.90;;;22.30;99.90;;;;;;5082639;28;20414;-57
2021/08/15 16:21:27;;;;;;;1020.33;947.33;;;21.80;99.90;;;;;;5077121;28;20406;-58
2021/08/15 16:24:16;;;;;;;1069.40;993.95;;;21.40;99.90;;;;;;5073673;28;20396;-57
2021/08/15 16:27:05;;;;;;;;;;;20.90;99.90;;;;;;5073090;28;20437;-57
2021/08/15 16:29:54;;;;;;;;;;;20.50;99.90;;;;;;5060965;28;20244;-58
2021/08/15 16:32:44;;;;;;;;;;;20.40;99.90;;;;;;5098758;28;19920;-59